createdAt,value
2018-12-05T00:00:15.251Z,1027.53
2018-12-05T00:01:15.361Z,1027.54
2018-12-05T00:02:15.524Z,1027.51
2018-12-05T00:03:15.403Z,1027.47
2018-12-05T00:04:15.177Z,1027.47
2018-12-05T00:05:15.264Z,1027.44
2018-12-05T00:06:15.938Z,1027.46
2018-12-05T00:07:15.434Z,1027.43
2018-12-05T00:08:15.346Z,1027.37
2018-12-05T00:09:15.446Z,1027.37
2018-12-05T00:10:15.159Z,1027.42
2018-12-05T00:11:15.597Z,1027.33
2018-12-05T00:12:15.111Z,1027.38
2018-12-05T00:13:15.114Z,1027.37
2018-12-05T00:14:15.248Z,1027.4
2018-12-05T00:15:15.288Z,1027.4
2018-12-05T00:16:15.144Z,1027.34
2018-12-05T00:17:15.192Z,1027.37
2018-12-05T00:18:15.135Z,1027.38
2018-12-05T00:19:15.257Z,1027.45
2018-12-05T00:20:15.110Z,1027.35
2018-12-05T00:21:15.257Z,1027.38
2018-12-05T00:22:15.266Z,1027.38
2018-12-05T00:23:15.431Z,1027.37
2018-12-05T00:24:15.114Z,1027.39
2018-12-05T00:25:15.413Z,1027.36
2018-12-05T00:26:15.462Z,1027.37
2018-12-05T00:27:15.158Z,1027.36
2018-12-05T00:28:15.203Z,1027.38
2018-12-05T00:29:15.095Z,1027.41
2018-12-05T00:30:15.168Z,1027.4
2018-12-05T00:31:15.152Z,1027.47
2018-12-05T00:32:15.201Z,1027.44
2018-12-05T00:33:15.150Z,1027.54
2018-12-05T00:34:15.112Z,1027.52
2018-12-05T00:35:15.102Z,1027.5
2018-12-05T00:36:15.077Z,1027.48
2018-12-05T00:37:15.249Z,1027.51
2018-12-05T00:38:15.125Z,1027.51
2018-12-05T00:39:15.076Z,1027.55
2018-12-05T00:40:15.357Z,1027.59
2018-12-05T00:41:15.130Z,1027.64
2018-12-05T00:42:15.294Z,1027.63
2018-12-05T00:43:15.176Z,1027.62
2018-12-05T00:44:15.184Z,1027.61
2018-12-05T00:45:15.090Z,1027.55
2018-12-05T00:46:15.075Z,1027.55
2018-12-05T00:47:15.060Z,1027.59
2018-12-05T00:48:15.095Z,1027.64
2018-12-05T00:49:15.231Z,1027.71
2018-12-05T00:50:15.182Z,1027.68
2018-12-05T00:51:15.192Z,1027.67
2018-12-05T00:52:15.133Z,1027.7
2018-12-05T00:53:15.123Z,1027.64
2018-12-05T00:54:15.211Z,1027.64
2018-12-05T00:55:15.140Z,1027.61
2018-12-05T00:56:15.273Z,1027.57
2018-12-05T00:57:15.462Z,1027.6
2018-12-05T00:58:15.135Z,1027.64
2018-12-05T00:59:15.451Z,1027.72
2018-12-05T01:00:15.082Z,1027.77
2018-12-05T01:01:15.156Z,1027.8
2018-12-05T01:02:15.028Z,1027.86
2018-12-05T01:03:15.056Z,1027.78
2018-12-05T01:04:15.122Z,1027.85
2018-12-05T01:05:15.358Z,1027.86
2018-12-05T01:06:15.219Z,1027.79
2018-12-05T01:07:15.227Z,1027.73
2018-12-05T01:08:15.174Z,1027.76
2018-12-05T01:09:15.080Z,1027.76
2018-12-05T01:10:15.103Z,1027.71
2018-12-05T01:11:15.063Z,1027.77
2018-12-05T01:12:15.118Z,1027.75
2018-12-05T01:13:15.294Z,1027.74
2018-12-05T01:14:15.180Z,1027.74
2018-12-05T01:15:15.037Z,1027.79
2018-12-05T01:16:15.131Z,1027.76
2018-12-05T01:17:15.069Z,1027.77
2018-12-05T01:18:15.087Z,1027.73
2018-12-05T01:19:15.040Z,1027.75
2018-12-05T01:20:15.210Z,1027.65
2018-12-05T01:21:15.098Z,1027.58
2018-12-05T01:22:15.168Z,1027.55
2018-12-05T01:23:15.385Z,1027.49
2018-12-05T01:24:15.068Z,1027.49
2018-12-05T01:25:15.108Z,1027.42
2018-12-05T01:26:15.586Z,1027.41
2018-12-05T01:27:15.086Z,1027.33
2018-12-05T01:28:15.070Z,1027.34
2018-12-05T01:29:15.031Z,1027.35
2018-12-05T01:30:15.307Z,1027.34
2018-12-05T01:31:15.077Z,1027.35
2018-12-05T01:32:15.068Z,1027.35
2018-12-05T01:33:16.511Z,1027.35
2018-12-05T01:34:15.083Z,1027.33
2018-12-05T01:35:15.218Z,1027.34
2018-12-05T01:36:15.040Z,1027.36
2018-12-05T01:37:15.184Z,1027.38
2018-12-05T01:38:15.623Z,1027.4
2018-12-05T01:39:15.049Z,1027.45
2018-12-05T01:40:15.274Z,1027.4
2018-12-05T01:41:15.254Z,1027.35
2018-12-05T01:42:15.260Z,1027.34
2018-12-05T01:43:15.030Z,1027.33
2018-12-05T01:44:15.026Z,1027.31
2018-12-05T01:45:15.143Z,1027.26
2018-12-05T01:46:15.029Z,1027.31
2018-12-05T01:47:15.008Z,1027.28
2018-12-05T01:48:15.062Z,1027.32
2018-12-05T01:49:15.010Z,1027.29
2018-12-05T01:50:15.287Z,1027.39
2018-12-05T01:51:15.023Z,1027.36
2018-12-05T01:52:15.257Z,1027.37
2018-12-05T01:53:15.141Z,1027.32
2018-12-05T01:54:15.020Z,1027.37
2018-12-05T01:55:15.103Z,1027.37
2018-12-05T01:56:15.034Z,1027.39
2018-12-05T01:57:15.041Z,1027.4
2018-12-05T01:58:15.012Z,1027.39
2018-12-05T01:59:15.010Z,1027.36
2018-12-05T02:00:15.106Z,1027.36
2018-12-05T02:01:15.029Z,1027.34
2018-12-05T02:02:15.025Z,1027.32
2018-12-05T02:03:15.275Z,1027.35
2018-12-05T02:04:14.991Z,1027.32
2018-12-05T02:05:15.047Z,1027.33
2018-12-05T02:06:15.351Z,1027.32
2018-12-05T02:07:15.569Z,1027.31
2018-12-05T02:08:14.990Z,1027.3
2018-12-05T02:09:15.031Z,1027.27
2018-12-05T02:10:15.001Z,1027.28
2018-12-05T02:11:15.057Z,1027.3
2018-12-05T02:12:15.460Z,1027.28
2018-12-05T02:13:15.101Z,1027.27
2018-12-05T02:14:15.055Z,1027.22
2018-12-05T02:15:15.038Z,1027.14
2018-12-05T02:16:15.220Z,1027.15
2018-12-05T02:17:14.951Z,1027.12
2018-12-05T02:18:14.994Z,1027.11
2018-12-05T02:19:15.017Z,1027.06
2018-12-05T02:20:15.091Z,1027.03
2018-12-05T02:21:15.026Z,1027.04
2018-12-05T02:22:15.065Z,1027.02
2018-12-05T02:23:15.192Z,1026.98
2018-12-05T02:24:15.258Z,1027
2018-12-05T02:25:14.982Z,1026.97
2018-12-05T02:26:15.362Z,1027
2018-12-05T02:27:15.122Z,1026.99
2018-12-05T02:28:15.416Z,1027
2018-12-05T02:29:15.501Z,1027.05
2018-12-05T02:30:15.253Z,1027.02
2018-12-05T02:31:15.066Z,1027.04
2018-12-05T02:32:15.124Z,1027.05
2018-12-05T02:33:15.399Z,1027.02
2018-12-05T02:34:14.986Z,1027.01
2018-12-05T02:35:15.300Z,1027.03
2018-12-05T02:36:15.086Z,1027.02
2018-12-05T02:37:15.015Z,1027.02
2018-12-05T02:38:15.004Z,1027.05
2018-12-05T02:39:15.078Z,1027.08
2018-12-05T02:40:14.953Z,1027
2018-12-05T02:41:15.081Z,1027.01
2018-12-05T02:42:15.157Z,1026.99
2018-12-05T02:43:15.134Z,1027.02
2018-12-05T02:44:15.059Z,1027.04
2018-12-05T02:45:15.067Z,1027.05
2018-12-05T02:46:15.025Z,1027.05
2018-12-05T02:47:15.053Z,1027.05
2018-12-05T02:48:15.017Z,1027.03
2018-12-05T02:49:15.020Z,1027.03
2018-12-05T02:50:15.325Z,1026.98
2018-12-05T02:51:14.965Z,1027
2018-12-05T02:52:15.026Z,1027.03
2018-12-05T02:53:15.068Z,1026.99
2018-12-05T02:54:14.940Z,1027.05
2018-12-05T02:55:15.052Z,1027.03
2018-12-05T02:56:15.140Z,1027.09
2018-12-05T02:57:15.048Z,1027.08
2018-12-05T02:58:15.007Z,1027.09
2018-12-05T02:59:15.161Z,1027.1
2018-12-05T03:00:15.058Z,1027.12
2018-12-05T03:01:14.936Z,1027.14
2018-12-05T03:02:14.981Z,1027.13
2018-12-05T03:03:15.043Z,1027.16
2018-12-05T03:04:15.241Z,1027.18
2018-12-05T03:05:15.120Z,1027.2
2018-12-05T03:06:15.145Z,1027.18
2018-12-05T03:07:15.047Z,1027.23
2018-12-05T03:08:14.980Z,1027.26
2018-12-05T03:09:15.078Z,1027.28
2018-12-05T03:10:15.056Z,1027.33
2018-12-05T03:11:15.144Z,1027.35
2018-12-05T03:12:15.021Z,1027.4
2018-12-05T03:13:15.049Z,1027.4
2018-12-05T03:14:15.167Z,1027.4
2018-12-05T03:15:15.043Z,1027.49
2018-12-05T03:16:15.128Z,1027.49
2018-12-05T03:17:14.889Z,1027.39
2018-12-05T03:18:15.012Z,1027.39
2018-12-05T03:19:15.108Z,1027.42
2018-12-05T03:20:15.694Z,1027.36
2018-12-05T03:21:14.978Z,1027.3
2018-12-05T03:22:15.154Z,1027.28
2018-12-05T03:23:15.078Z,1027.28
2018-12-05T03:24:15.059Z,1027.31
2018-12-05T03:25:15.017Z,1027.32
2018-12-05T03:26:15.003Z,1027.27
2018-12-05T03:27:15.009Z,1027.27
2018-12-05T03:28:14.975Z,1027.29
2018-12-05T03:29:15.028Z,1027.28
2018-12-05T03:30:15.034Z,1027.32
2018-12-05T03:31:14.935Z,1027.33
2018-12-05T03:32:14.900Z,1027.34
2018-12-05T03:33:15.067Z,1027.3
2018-12-05T03:34:14.949Z,1027.24
2018-12-05T03:35:14.857Z,1027.2
2018-12-05T03:36:14.929Z,1027.16
2018-12-05T03:37:14.971Z,1027.08
2018-12-05T03:38:15.106Z,1027.04
2018-12-05T03:39:14.984Z,1027.03
2018-12-05T03:40:14.835Z,1026.99
2018-12-05T03:41:15.002Z,1026.98
2018-12-05T03:42:14.964Z,1026.92
2018-12-05T03:43:14.847Z,1026.97
2018-12-05T03:44:14.898Z,1026.96
2018-12-05T03:45:14.902Z,1027
2018-12-05T03:46:14.965Z,1026.94
2018-12-05T03:47:15.001Z,1026.95
2018-12-05T03:48:14.926Z,1026.91
2018-12-05T03:49:15.057Z,1026.96
2018-12-05T03:50:14.939Z,1026.87
2018-12-05T03:51:14.890Z,1026.79
2018-12-05T03:52:15.031Z,1026.84
2018-12-05T03:53:14.960Z,1026.83
2018-12-05T03:54:14.823Z,1026.77
2018-12-05T03:55:14.959Z,1026.84
2018-12-05T03:56:14.871Z,1026.81
2018-12-05T03:57:14.896Z,1026.85
2018-12-05T03:58:14.976Z,1026.76
2018-12-05T03:59:14.884Z,1026.81
2018-12-05T04:00:15.036Z,1026.84
2018-12-05T04:01:14.978Z,1026.82
2018-12-05T04:02:15.086Z,1026.8
2018-12-05T04:03:14.988Z,1026.79
2018-12-05T04:04:14.933Z,1026.79
2018-12-05T04:05:15.028Z,1026.78
2018-12-05T04:06:14.991Z,1026.8
2018-12-05T04:07:15.670Z,1026.85
2018-12-05T04:08:15.003Z,1026.83
2018-12-05T04:09:14.891Z,1026.84
2018-12-05T04:10:15.664Z,1026.85
2018-12-05T04:11:14.987Z,1026.8
2018-12-05T04:12:14.971Z,1026.79
2018-12-05T04:13:14.831Z,1026.8
2018-12-05T04:14:14.954Z,1026.8
2018-12-05T04:15:15.043Z,1026.79
2018-12-05T04:16:14.783Z,1026.79
2018-12-05T04:17:14.805Z,1026.8
2018-12-05T04:18:14.984Z,1026.8
2018-12-05T04:19:15.179Z,1026.8
2018-12-05T04:20:14.982Z,1026.77
2018-12-05T04:21:14.887Z,1026.76
2018-12-05T04:22:15.168Z,1026.72
2018-12-05T04:23:14.947Z,1026.76
2018-12-05T04:24:15.013Z,1026.75
2018-12-05T04:25:14.848Z,1026.76
2018-12-05T04:26:14.821Z,1026.73
2018-12-05T04:27:15.201Z,1026.71
2018-12-05T04:28:15.052Z,1026.76
2018-12-05T04:29:14.786Z,1026.74
2018-12-05T04:30:15.052Z,1026.82
2018-12-05T04:31:15.009Z,1026.75
2018-12-05T04:32:16.030Z,1026.79
2018-12-05T04:33:15.016Z,1026.84
2018-12-05T04:34:15.023Z,1026.84
2018-12-05T04:35:14.795Z,1026.8
2018-12-05T04:36:14.989Z,1026.8
2018-12-05T04:37:14.848Z,1026.77
2018-12-05T04:38:15.331Z,1026.74
2018-12-05T04:39:14.980Z,1026.79
2018-12-05T04:40:15.158Z,1026.77
2018-12-05T04:41:14.791Z,1026.78
2018-12-05T04:42:14.783Z,1026.84
2018-12-05T04:43:14.869Z,1026.78
2018-12-05T04:44:14.792Z,1026.79
2018-12-05T04:45:14.819Z,1026.74
2018-12-05T04:46:15.011Z,1026.76
2018-12-05T04:47:14.939Z,1026.72
2018-12-05T04:48:14.852Z,1026.72
2018-12-05T04:49:15.897Z,1026.72
2018-12-05T04:50:14.997Z,1026.73
2018-12-05T04:51:14.838Z,1026.74
2018-12-05T04:52:15.198Z,1026.7
2018-12-05T04:53:14.806Z,1026.69
2018-12-05T04:54:14.944Z,1026.75
2018-12-05T04:55:14.771Z,1026.75
2018-12-05T04:56:14.792Z,1026.75
2018-12-05T04:57:14.722Z,1026.83
2018-12-05T04:58:15.010Z,1026.82
2018-12-05T04:59:14.767Z,1026.82
2018-12-05T05:00:14.826Z,1026.81
2018-12-05T05:01:14.746Z,1026.86
2018-12-05T05:02:14.766Z,1026.82
2018-12-05T05:03:14.769Z,1026.88
2018-12-05T05:04:14.999Z,1026.89
2018-12-05T05:05:14.877Z,1026.95
2018-12-05T05:06:14.744Z,1026.97
2018-12-05T05:07:14.926Z,1026.99
2018-12-05T05:08:15.005Z,1026.96
2018-12-05T05:09:14.824Z,1026.98
2018-12-05T05:10:14.842Z,1026.95
2018-12-05T05:11:14.720Z,1027.03
2018-12-05T05:12:15.074Z,1026.98
2018-12-05T05:13:14.810Z,1026.96
2018-12-05T05:14:14.742Z,1027.01
2018-12-05T05:15:15.064Z,1027.04
2018-12-05T05:16:14.716Z,1027.04
2018-12-05T05:17:14.704Z,1027.1
2018-12-05T05:18:14.746Z,1027.1
2018-12-05T05:19:15.093Z,1027.15
2018-12-05T05:20:14.796Z,1027.15
2018-12-05T05:21:14.755Z,1027.18
2018-12-05T05:22:14.724Z,1027.2
2018-12-05T05:23:14.972Z,1027.15
2018-12-05T05:24:14.772Z,1027.12
2018-12-05T05:25:14.743Z,1027.1
2018-12-05T05:26:14.741Z,1027.12
2018-12-05T05:27:14.794Z,1027.12
2018-12-05T05:28:14.714Z,1027.09
2018-12-05T05:29:14.746Z,1027.09
2018-12-05T05:30:14.712Z,1027.05
2018-12-05T05:31:14.727Z,1027.04
2018-12-05T05:32:14.897Z,1026.97
2018-12-05T05:33:15.414Z,1027.03
2018-12-05T05:34:14.996Z,1026.94
2018-12-05T05:35:14.725Z,1026.94
2018-12-05T05:36:17.589Z,1026.89
2018-12-05T05:37:14.763Z,1026.88
2018-12-05T05:38:14.718Z,1026.85
2018-12-05T05:39:14.999Z,1026.89
2018-12-05T05:40:14.778Z,1026.9
2018-12-05T05:41:14.704Z,1026.88
2018-12-05T05:42:15.531Z,1026.89
2018-12-05T05:43:14.752Z,1026.93
2018-12-05T05:44:14.749Z,1026.92
2018-12-05T05:45:14.972Z,1026.97
2018-12-05T05:46:14.800Z,1026.92
2018-12-05T05:47:14.996Z,1026.9
2018-12-05T05:48:15.055Z,1026.95
2018-12-05T05:49:14.875Z,1026.97
2018-12-05T05:50:14.689Z,1026.97
2018-12-05T05:51:14.770Z,1026.99
2018-12-05T05:52:14.692Z,1027.04
2018-12-05T05:53:14.885Z,1027.05
2018-12-05T05:54:14.721Z,1027.05
2018-12-05T05:55:14.722Z,1027.05
2018-12-05T05:56:14.815Z,1027
2018-12-05T05:57:14.752Z,1027.02
2018-12-05T05:58:14.971Z,1026.99
2018-12-05T05:59:14.684Z,1027.06
2018-12-05T06:00:14.678Z,1026.99
2018-12-05T06:01:14.722Z,1027.06
2018-12-05T06:02:15.071Z,1027.02
2018-12-05T06:03:14.653Z,1027.04
2018-12-05T06:04:14.692Z,1027.05
2018-12-05T06:05:15.030Z,1027.02
2018-12-05T06:06:15.084Z,1027.07
2018-12-05T06:07:14.929Z,1027.08
2018-12-05T06:08:15.063Z,1027.11
2018-12-05T06:09:14.704Z,1027.1
2018-12-05T06:10:14.954Z,1027.12
2018-12-05T06:11:14.740Z,1027.11
2018-12-05T06:12:14.815Z,1027.1
2018-12-05T06:13:14.679Z,1027.09
2018-12-05T06:14:15.083Z,1027.09
2018-12-05T06:15:15.550Z,1027.14
2018-12-05T06:16:14.941Z,1027.13
2018-12-05T06:17:14.748Z,1027.14
2018-12-05T06:18:14.705Z,1027.11
2018-12-05T06:19:14.761Z,1027.1
2018-12-05T06:20:14.669Z,1027.08
2018-12-05T06:21:14.793Z,1027.06
2018-12-05T06:22:14.751Z,1027.09
2018-12-05T06:23:14.753Z,1027.09
2018-12-05T06:24:14.949Z,1027.08
2018-12-05T06:25:14.629Z,1027.08
2018-12-05T06:26:14.809Z,1027.1
2018-12-05T06:27:14.716Z,1027.17
2018-12-05T06:28:14.992Z,1027.18
2018-12-05T06:29:15.034Z,1027.19
2018-12-05T06:30:14.655Z,1027.18
2018-12-05T06:31:14.679Z,1027.17
2018-12-05T06:32:14.669Z,1027.17
2018-12-05T06:33:14.781Z,1027.2
2018-12-05T06:34:14.671Z,1027.28
2018-12-05T06:35:14.682Z,1027.3
2018-12-05T06:36:14.699Z,1027.3
2018-12-05T06:37:14.646Z,1027.28
2018-12-05T06:38:14.999Z,1027.28
2018-12-05T06:39:14.774Z,1027.3
2018-12-05T06:40:14.756Z,1027.28
2018-12-05T06:41:14.710Z,1027.31
2018-12-05T06:42:14.683Z,1027.29
2018-12-05T06:43:14.802Z,1027.28
2018-12-05T06:44:14.683Z,1027.32
2018-12-05T06:45:14.759Z,1027.32
2018-12-05T06:46:14.693Z,1027.36
2018-12-05T06:47:14.833Z,1027.35
2018-12-05T06:48:14.599Z,1027.36
2018-12-05T06:49:14.622Z,1027.33
2018-12-05T06:50:14.840Z,1027.29
2018-12-05T06:51:14.803Z,1027.29
2018-12-05T06:52:14.779Z,1027.31
2018-12-05T06:53:14.714Z,1027.29
2018-12-05T06:54:14.670Z,1027.3
2018-12-05T06:55:14.593Z,1027.29
2018-12-05T06:56:14.608Z,1027.23
2018-12-05T06:57:14.629Z,1027.18
2018-12-05T06:58:14.616Z,1027.13
2018-12-05T06:59:14.622Z,1027.1
2018-12-05T07:00:14.596Z,1027.1
2018-12-05T07:01:14.772Z,1027.06
2018-12-05T07:02:14.580Z,1027.03
2018-12-05T07:03:14.645Z,1027.01
2018-12-05T07:04:14.582Z,1027.03
2018-12-05T07:05:14.581Z,1027
2018-12-05T07:06:14.564Z,1027.05
2018-12-05T07:07:14.581Z,1027.06
2018-12-05T07:08:14.599Z,1027.07
2018-12-05T07:09:14.605Z,1027.05
2018-12-05T07:10:14.717Z,1027.09
2018-12-05T07:11:14.625Z,1027.01
2018-12-05T07:12:14.794Z,1027.01
2018-12-05T07:13:14.614Z,1026.91
2018-12-05T07:14:14.660Z,1026.89
2018-12-05T07:15:14.563Z,1026.93
2018-12-05T07:16:14.719Z,1026.94
2018-12-05T07:17:14.602Z,1026.91
2018-12-05T07:18:14.573Z,1026.94
2018-12-05T07:19:14.558Z,1027.04
2018-12-05T07:20:14.565Z,1027.05
2018-12-05T07:21:14.650Z,1027.06
2018-12-05T07:22:14.647Z,1027.05
2018-12-05T07:23:14.627Z,1027.07
2018-12-05T07:24:14.649Z,1027.13
2018-12-05T07:25:14.586Z,1027.23
2018-12-05T07:26:14.730Z,1027.22
2018-12-05T07:27:14.735Z,1027.24
2018-12-05T07:28:14.743Z,1027.2
2018-12-05T07:29:14.570Z,1027.16
2018-12-05T07:30:14.572Z,1027.17
2018-12-05T07:31:14.568Z,1027.14
2018-12-05T07:32:14.626Z,1027.18
2018-12-05T07:33:14.574Z,1027.18
2018-12-05T07:34:14.604Z,1027.18
2018-12-05T07:35:14.547Z,1027.2
2018-12-05T07:36:14.726Z,1027.18
2018-12-05T07:37:14.704Z,1027.2
2018-12-05T07:38:19.827Z,1027.15
2018-12-05T07:39:14.766Z,1027.14
2018-12-05T07:40:14.984Z,1027.21
2018-12-05T07:41:14.792Z,1027.16
2018-12-05T07:42:14.711Z,1027.17
2018-12-05T07:43:14.659Z,1027.13
2018-12-05T07:44:14.536Z,1027.19
2018-12-05T07:45:14.556Z,1027.17
2018-12-05T07:46:14.539Z,1027.2
2018-12-05T07:47:14.627Z,1027.15
2018-12-05T07:48:14.759Z,1027.09
2018-12-05T07:49:14.999Z,1027.1
2018-12-05T07:50:16.033Z,1027.13
2018-12-05T07:51:14.500Z,1027.18
2018-12-05T07:52:14.550Z,1027.18
2018-12-05T07:53:14.622Z,1027.13
2018-12-05T07:54:14.601Z,1027.19
2018-12-05T07:55:14.605Z,1027.15
2018-12-05T07:56:14.734Z,1027.21
2018-12-05T07:57:14.526Z,1027.2
2018-12-05T07:58:14.681Z,1027.22
2018-12-05T07:59:14.559Z,1027.26
2018-12-05T08:00:14.505Z,1027.29
2018-12-05T08:01:14.715Z,1027.28
2018-12-05T08:02:14.619Z,1027.34
2018-12-05T08:03:14.638Z,1027.3
2018-12-05T08:04:14.560Z,1027.31
2018-12-05T08:05:14.568Z,1027.29
2018-12-05T08:06:14.833Z,1027.27
2018-12-05T08:07:14.946Z,1027.25
2018-12-05T08:08:14.574Z,1027.27
2018-12-05T08:09:14.580Z,1027.25
2018-12-05T08:10:14.725Z,1027.26
2018-12-05T08:11:14.697Z,1027.28
2018-12-05T08:12:14.690Z,1027.34
2018-12-05T08:13:14.520Z,1027.32
2018-12-05T08:14:14.550Z,1027.33
2018-12-05T08:15:14.562Z,1027.28
2018-12-05T08:16:14.547Z,1027.28
2018-12-05T08:17:14.481Z,1027.35
2018-12-05T08:18:14.723Z,1027.33
2018-12-05T08:19:14.579Z,1027.34
2018-12-05T08:20:14.725Z,1027.32
2018-12-05T08:21:14.510Z,1027.35
2018-12-05T08:22:14.726Z,1027.3
2018-12-05T08:23:14.688Z,1027.31
2018-12-05T08:24:14.516Z,1027.27
2018-12-05T08:25:14.527Z,1027.26
2018-12-05T08:26:14.664Z,1027.28
2018-12-05T08:27:14.715Z,1027.22
2018-12-05T08:28:14.559Z,1027.21
2018-12-05T08:29:14.833Z,1027.21
2018-12-05T08:30:14.489Z,1027.23
2018-12-05T08:31:14.668Z,1027.3
2018-12-05T08:32:14.657Z,1027.32
2018-12-05T08:33:15.173Z,1027.31
2018-12-05T08:34:14.603Z,1027.33
2018-12-05T08:35:14.481Z,1027.28
2018-12-05T08:36:14.478Z,1027.3
2018-12-05T08:37:14.442Z,1027.27
2018-12-05T08:38:14.486Z,1027.24
2018-12-05T08:39:14.724Z,1027.25
2018-12-05T08:40:14.464Z,1027.22
2018-12-05T08:41:14.455Z,1027.21
2018-12-05T08:42:14.518Z,1027.18
2018-12-05T08:43:14.492Z,1027.15
2018-12-05T08:44:14.423Z,1027.16
2018-12-05T08:45:14.505Z,1027.17
2018-12-05T08:46:14.469Z,1027.22
2018-12-05T08:47:14.444Z,1027.17
2018-12-05T08:48:14.489Z,1027.18
2018-12-05T08:49:14.438Z,1027.18
2018-12-05T08:50:14.428Z,1027.17
2018-12-05T08:51:14.536Z,1027.17
2018-12-05T08:52:14.409Z,1027.15
2018-12-05T08:53:14.487Z,1027.12
2018-12-05T08:54:21.359Z,1027.14
2018-12-05T08:55:14.435Z,1027.2
2018-12-05T08:56:14.475Z,1027.19
2018-12-05T08:57:14.444Z,1027.26
2018-12-05T08:58:14.422Z,1027.28
2018-12-05T08:59:14.486Z,1027.29
2018-12-05T09:00:14.533Z,1027.35
2018-12-05T09:01:14.464Z,1027.33
2018-12-05T09:02:14.962Z,1027.34
2018-12-05T09:03:14.456Z,1027.31
2018-12-05T09:04:14.428Z,1027.27
2018-12-05T09:05:14.692Z,1027.34
2018-12-05T09:06:14.652Z,1027.37
2018-12-05T09:07:14.449Z,1027.44
2018-12-05T09:08:14.651Z,1027.44
2018-12-05T09:09:14.601Z,1027.48
2018-12-05T09:10:15.248Z,1027.41
2018-12-05T09:11:14.784Z,1027.3
2018-12-05T09:12:14.556Z,1027.31
2018-12-05T09:13:14.482Z,1027.27
2018-12-05T09:14:14.491Z,1027.26
2018-12-05T09:15:14.440Z,1027.25
2018-12-05T09:16:14.552Z,1027.29
2018-12-05T09:17:14.728Z,1027.29
2018-12-05T09:18:14.478Z,1027.28
2018-12-05T09:19:14.387Z,1027.27
2018-12-05T09:20:14.442Z,1027.29
2018-12-05T09:21:14.504Z,1027.23
2018-12-05T09:22:14.558Z,1027.3
2018-12-05T09:23:14.428Z,1027.29
2018-12-05T09:24:14.403Z,1027.33
2018-12-05T09:25:14.425Z,1027.34
2018-12-05T09:26:14.589Z,1027.32
2018-12-05T09:27:14.490Z,1027.34
2018-12-05T09:28:14.431Z,1027.3
2018-12-05T09:29:14.414Z,1027.31
2018-12-05T09:30:15.076Z,1027.31
2018-12-05T09:31:14.654Z,1027.3
2018-12-05T09:32:14.460Z,1027.31
2018-12-05T09:33:14.441Z,1027.32
2018-12-05T09:34:14.374Z,1027.34
2018-12-05T09:35:14.635Z,1027.27
2018-12-05T09:36:14.426Z,1027.3
2018-12-05T09:37:14.435Z,1027.31
2018-12-05T09:38:14.559Z,1027.32
2018-12-05T09:39:14.642Z,1027.36
2018-12-05T09:40:14.413Z,1027.39
2018-12-05T09:41:14.419Z,1027.31
2018-12-05T09:42:14.427Z,1027.32
2018-12-05T09:43:14.387Z,1027.29
2018-12-05T09:44:14.358Z,1027.28
2018-12-05T09:45:14.399Z,1027.23
2018-12-05T09:46:15.203Z,1027.25
2018-12-05T09:47:16.334Z,1027.23
2018-12-05T09:48:14.571Z,1027.22
2018-12-05T09:49:14.845Z,1027.24
2018-12-05T09:50:14.451Z,1027.21
2018-12-05T09:51:14.442Z,1027.18
2018-12-05T09:52:14.391Z,1027.18
2018-12-05T09:53:14.394Z,1027.16
2018-12-05T09:54:14.434Z,1027.06
2018-12-05T09:55:14.475Z,1027.08
2018-12-05T09:56:14.546Z,1027.09
2018-12-05T09:57:14.572Z,1027.12
2018-12-05T09:58:14.548Z,1027.16
2018-12-05T09:59:14.468Z,1027.13
2018-12-05T10:00:14.440Z,1027.08
2018-12-05T10:01:14.666Z,1027.14
2018-12-05T10:02:14.514Z,1027.06
2018-12-05T10:03:14.752Z,1027.03
2018-12-05T10:04:14.648Z,1027.05
2018-12-05T10:05:14.716Z,1027
2018-12-05T10:06:14.465Z,1026.95
2018-12-05T10:07:14.491Z,1026.93
2018-12-05T10:08:14.644Z,1026.92
2018-12-05T10:09:14.469Z,1026.86
2018-12-05T10:10:14.484Z,1026.76
2018-12-05T10:11:14.385Z,1026.77
2018-12-05T10:12:14.330Z,1026.72
2018-12-05T10:13:14.330Z,1026.75
2018-12-05T10:14:14.476Z,1026.78
2018-12-05T10:15:14.516Z,1026.77
2018-12-05T10:16:14.848Z,1026.73
2018-12-05T10:17:14.682Z,1026.71
2018-12-05T10:18:14.430Z,1026.72
2018-12-05T10:19:14.338Z,1026.72
2018-12-05T10:20:14.582Z,1026.68
2018-12-05T10:21:14.311Z,1026.68
2018-12-05T10:22:14.346Z,1026.66
2018-12-05T10:23:14.313Z,1026.64
2018-12-05T10:24:14.301Z,1026.65
2018-12-05T10:25:14.313Z,1026.64
2018-12-05T10:26:14.492Z,1026.64
2018-12-05T10:27:14.385Z,1026.6
2018-12-05T10:28:14.778Z,1026.56
2018-12-05T10:29:14.451Z,1026.6
2018-12-05T10:30:14.391Z,1026.54
2018-12-05T10:31:14.300Z,1026.57
2018-12-05T10:32:14.375Z,1026.59
2018-12-05T10:33:14.314Z,1026.55
2018-12-05T10:34:14.305Z,1026.52
2018-12-05T10:35:14.296Z,1026.46
2018-12-05T10:36:14.562Z,1026.51
2018-12-05T10:37:14.317Z,1026.43
2018-12-05T10:38:14.323Z,1026.47
2018-12-05T10:39:14.306Z,1026.43
2018-12-05T10:40:14.700Z,1026.44
2018-12-05T10:41:14.266Z,1026.4
2018-12-05T10:42:14.334Z,1026.42
2018-12-05T10:43:14.319Z,1026.36
2018-12-05T10:44:14.423Z,1026.35
2018-12-05T10:45:14.532Z,1026.28
2018-12-05T10:46:15.133Z,1026.31
2018-12-05T10:47:14.690Z,1026.29
2018-12-05T10:48:14.500Z,1026.25
2018-12-05T10:49:14.273Z,1026.28
2018-12-05T10:50:14.381Z,1026.29
2018-12-05T10:51:14.592Z,1026.33
2018-12-05T10:52:14.371Z,1026.34
2018-12-05T10:53:14.381Z,1026.39
2018-12-05T10:54:14.339Z,1026.4
2018-12-05T10:55:14.433Z,1026.36
2018-12-05T10:56:14.482Z,1026.37
2018-12-05T10:57:14.563Z,1026.36
2018-12-05T10:58:14.289Z,1026.36
2018-12-05T10:59:14.384Z,1026.34
2018-12-05T11:00:14.431Z,1026.29
2018-12-05T11:01:14.337Z,1026.32
2018-12-05T11:02:15.010Z,1026.3
2018-12-05T11:03:14.291Z,1026.32
2018-12-05T11:04:14.428Z,1026.34
2018-12-05T11:05:14.433Z,1026.37
2018-12-05T11:06:14.525Z,1026.38
2018-12-05T11:07:14.276Z,1026.39
2018-12-05T11:08:14.306Z,1026.31
2018-12-05T11:09:14.565Z,1026.24
2018-12-05T11:10:14.364Z,1026.27
2018-12-05T11:11:14.375Z,1026.27
2018-12-05T11:12:14.355Z,1026.22
2018-12-05T11:13:14.389Z,1026.21
2018-12-05T11:14:14.457Z,1026.21
2018-12-05T11:15:14.301Z,1026.15
2018-12-05T11:16:14.460Z,1026.14
2018-12-05T11:17:14.469Z,1026.18
2018-12-05T11:18:14.292Z,1026.18
2018-12-05T11:19:14.784Z,1026.15
2018-12-05T11:20:14.454Z,1026.21
2018-12-05T11:21:14.313Z,1026.14
2018-12-05T11:22:14.407Z,1026.16
2018-12-05T11:23:14.357Z,1026.12
2018-12-05T11:24:14.568Z,1026.1
2018-12-05T11:25:14.281Z,1026.13
2018-12-05T11:26:14.320Z,1026.12
2018-12-05T11:27:14.456Z,1026.11
2018-12-05T11:28:15.104Z,1026.05
2018-12-05T11:29:14.364Z,1026.03
2018-12-05T11:30:14.517Z,1026.07
2018-12-05T11:31:14.516Z,1026.06
2018-12-05T11:32:14.529Z,1026.05
2018-12-05T11:33:14.387Z,1026
2018-12-05T11:34:14.404Z,1026
2018-12-05T11:35:14.262Z,1025.96
2018-12-05T11:36:14.314Z,1025.97
2018-12-05T11:37:14.629Z,1025.96
2018-12-05T11:38:14.252Z,1025.99
2018-12-05T11:39:14.262Z,1025.93
2018-12-05T11:40:15.047Z,1025.88
2018-12-05T11:41:14.314Z,1025.84
2018-12-05T11:42:14.429Z,1025.86
2018-12-05T11:43:14.266Z,1025.89
2018-12-05T11:44:14.376Z,1025.83
2018-12-05T11:45:14.468Z,1025.84
2018-12-05T11:46:14.623Z,1025.85
2018-12-05T11:47:14.219Z,1025.8
2018-12-05T11:48:14.294Z,1025.81
2018-12-05T11:49:14.805Z,1025.79
2018-12-05T11:50:14.274Z,1025.79
2018-12-05T11:51:14.235Z,1025.76
2018-12-05T11:52:14.420Z,1025.78
2018-12-05T11:53:14.321Z,1025.71
2018-12-05T11:54:14.205Z,1025.7
2018-12-05T11:55:14.313Z,1025.7
2018-12-05T11:56:14.242Z,1025.71
2018-12-05T11:57:14.225Z,1025.66
2018-12-05T11:58:14.258Z,1025.64
2018-12-05T11:59:14.237Z,1025.68
2018-12-05T12:00:14.211Z,1025.64
2018-12-05T12:01:14.216Z,1025.57
2018-12-05T12:02:14.260Z,1025.55
2018-12-05T12:03:14.197Z,1025.57
2018-12-05T12:04:14.330Z,1025.55
2018-12-05T12:05:14.383Z,1025.48
2018-12-05T12:06:14.388Z,1025.47
2018-12-05T12:07:14.248Z,1025.43
2018-12-05T12:08:14.815Z,1025.4
2018-12-05T12:09:14.237Z,1025.38